sensor_id;sensor_type;location;lat;lon;timestamp;P1;durP1;ratioP1;P2;durP2;ratioP2
41293;SDS011;27037;52.010;4.446;2023-03-23T00:00:58;13.80;;;4.30;;
41293;SDS011;27037;52.010;4.446;2023-03-23T00:03:25;11.23;;;4.55;;
41293;SDS011;27037;52.010;4.446;2023-03-23T00:05:53;10.10;;;4.15;;
41293;SDS011;27037;52.010;4.446;2023-03-23T00:08:24;10.45;;;3.90;;
41293;SDS011;27037;52.010;4.446;2023-03-23T00:10:51;7.40;;;3.60;;
41293;SDS011;27037;52.010;4.446;2023-03-23T00:13:21;11.43;;;3.72;;
41293;SDS011;27037;52.010;4.446;2023-03-23T00:15:50;9.52;;;4.30;;
41293;SDS011;27037;52.010;4.446;2023-03-23T00:18:19;9.05;;;3.70;;
41293;SDS011;27037;52.010;4.446;2023-03-23T00:20:46;5.65;;;3.20;;
41293;SDS011;27037;52.010;4.446;2023-03-23T00:23:16;7.28;;;3.10;;
41293;SDS011;27037;52.010;4.446;2023-03-23T00:25:47;7.28;;;3.33;;
41293;SDS011;27037;52.010;4.446;2023-03-23T00:28:14;7.28;;;3.20;;
41293;SDS011;27037;52.010;4.446;2023-03-23T00:30:41;13.55;;;3.80;;
41293;SDS011;27037;52.010;4.446;2023-03-23T00:33:09;7.35;;;3.00;;
41293;SDS011;27037;52.010;4.446;2023-03-23T00:35:37;10.60;;;3.38;;
41293;SDS011;27037;52.010;4.446;2023-03-23T00:38:04;7.43;;;3.15;;
41293;SDS011;27037;52.010;4.446;2023-03-23T00:40:30;8.98;;;3.60;;
41293;SDS011;27037;52.010;4.446;2023-03-23T00:43:00;9.98;;;3.60;;
41293;SDS011;27037;52.010;4.446;2023-03-23T00:45:28;9.13;;;3.42;;
41293;SDS011;27037;52.010;4.446;2023-03-23T00:47:54;9.68;;;3.30;;
41293;SDS011;27037;52.010;4.446;2023-03-23T00:50:21;11.70;;;3.65;;
41293;SDS011;27037;52.010;4.446;2023-03-23T00:52:47;7.80;;;3.20;;
41293;SDS011;27037;52.010;4.446;2023-03-23T00:55:14;8.73;;;3.20;;
41293;SDS011;27037;52.010;4.446;2023-03-23T00:57:40;8.45;;;3.22;;
41293;SDS011;27037;52.010;4.446;2023-03-23T01:00:05;7.85;;;3.30;;
41293;SDS011;27037;52.010;4.446;2023-03-23T01:02:35;7.60;;;2.90;;
41293;SDS011;27037;52.010;4.446;2023-03-23T01:05:01;7.03;;;3.20;;
41293;SDS011;27037;52.010;4.446;2023-03-23T01:07:28;9.57;;;3.47;;
41293;SDS011;27037;52.010;4.446;2023-03-23T01:09:56;10.35;;;3.53;;
41293;SDS011;27037;52.010;4.446;2023-03-23T01:12:22;4.68;;;2.88;;
41293;SDS011;27037;52.010;4.446;2023-03-23T01:14:49;6.82;;;3.00;;
41293;SDS011;27037;52.010;4.446;2023-03-23T01:17:16;9.43;;;3.08;;
41293;SDS011;27037;52.010;4.446;2023-03-23T01:19:41;7.95;;;3.20;;
41293;SDS011;27037;52.010;4.446;2023-03-23T01:22:07;6.68;;;3.22;;
41293;SDS011;27037;52.010;4.446;2023-03-23T01:24:32;7.55;;;2.83;;
41293;SDS011;27037;52.010;4.446;2023-03-23T01:26:58;8.80;;;3.25;;
41293;SDS011;27037;52.010;4.446;2023-03-23T01:29:31;5.60;;;2.78;;
41293;SDS011;27037;52.010;4.446;2023-03-23T01:32:00;6.05;;;2.47;;
41293;SDS011;27037;52.010;4.446;2023-03-23T01:34:26;6.15;;;2.65;;
41293;SDS011;27037;52.010;4.446;2023-03-23T01:36:51;6.15;;;2.50;;
41293;SDS011;27037;52.010;4.446;2023-03-23T01:39:17;4.05;;;2.50;;
41293;SDS011;27037;52.010;4.446;2023-03-23T01:41:43;4.82;;;2.50;;
41293;SDS011;27037;52.010;4.446;2023-03-23T01:46:43;4.03;;;2.40;;
41293;SDS011;27037;52.010;4.446;2023-03-23T01:49:21;4.68;;;2.50;;
41293;SDS011;27037;52.010;4.446;2023-03-23T01:51:52;7.03;;;2.53;;
41293;SDS011;27037;52.010;4.446;2023-03-23T01:54:21;7.05;;;2.65;;
41293;SDS011;27037;52.010;4.446;2023-03-23T01:56:55;10.30;;;2.80;;
41293;SDS011;27037;52.010;4.446;2023-03-23T01:59:24;8.13;;;2.63;;
41293;SDS011;27037;52.010;4.446;2023-03-23T02:01:52;5.80;;;2.72;;
41293;SDS011;27037;52.010;4.446;2023-03-23T02:04:20;5.60;;;2.63;;
41293;SDS011;27037;52.010;4.446;2023-03-23T02:06:48;6.43;;;2.80;;
41293;SDS011;27037;52.010;4.446;2023-03-23T02:09:15;4.65;;;2.75;;
41293;SDS011;27037;52.010;4.446;2023-03-23T02:11:42;5.57;;;2.65;;
41293;SDS011;27037;52.010;4.446;2023-03-23T02:14:08;5.90;;;2.60;;
41293;SDS011;27037;52.010;4.446;2023-03-23T02:35:41;7.55;;;2.60;;
41293;SDS011;27037;52.010;4.446;2023-03-23T02:38:14;7.00;;;2.58;;
41293;SDS011;27037;52.010;4.446;2023-03-23T02:40:45;5.07;;;2.33;;
41293;SDS011;27037;52.010;4.446;2023-03-23T02:43:17;6.82;;;2.47;;
41293;SDS011;27037;52.010;4.446;2023-03-23T02:45:45;7.07;;;2.50;;
41293;SDS011;27037;52.010;4.446;2023-03-23T02:48:11;6.28;;;2.40;;
41293;SDS011;27037;52.010;4.446;2023-03-23T02:50:42;7.72;;;2.40;;
41293;SDS011;27037;52.010;4.446;2023-03-23T02:53:10;10.13;;;2.65;;
41293;SDS011;27037;52.010;4.446;2023-03-23T02:55:39;11.05;;;2.83;;
41293;SDS011;27037;52.010;4.446;2023-03-23T02:58:08;7.47;;;2.58;;
41293;SDS011;27037;52.010;4.446;2023-03-23T03:00:35;7.25;;;2.42;;
41293;SDS011;27037;52.010;4.446;2023-03-23T03:03:01;6.47;;;2.20;;
41293;SDS011;27037;52.010;4.446;2023-03-23T03:18:37;8.48;;;2.83;;
41293;SDS011;27037;52.010;4.446;2023-03-23T03:21:25;5.05;;;2.90;;
41293;SDS011;27037;52.010;4.446;2023-03-23T03:23:55;9.98;;;2.90;;
41293;SDS011;27037;52.010;4.446;2023-03-23T03:26:25;9.98;;;2.90;;
41293;SDS011;27037;52.010;4.446;2023-03-23T03:28:53;8.45;;;2.72;;
41293;SDS011;27037;52.010;4.446;2023-03-23T03:31:21;8.13;;;3.38;;
41293;SDS011;27037;52.010;4.446;2023-03-23T03:33:55;8.52;;;4.00;;
41293;SDS011;27037;52.010;4.446;2023-03-23T03:36:26;11.60;;;4.75;;
41293;SDS011;27037;52.010;4.446;2023-03-23T03:38:59;9.05;;;3.55;;
41293;SDS011;27037;52.010;4.446;2023-03-23T03:41:32;10.60;;;3.58;;
41293;SDS011;27037;52.010;4.446;2023-03-23T03:43:59;7.47;;;3.30;;
41293;SDS011;27037;52.010;4.446;2023-03-23T03:46:25;11.40;;;3.45;;
41293;SDS011;27037;52.010;4.446;2023-03-23T03:48:54;12.02;;;3.97;;
41293;SDS011;27037;52.010;4.446;2023-03-23T03:51:21;13.98;;;3.85;;
41293;SDS011;27037;52.010;4.446;2023-03-23T03:53:48;8.98;;;3.53;;
41293;SDS011;27037;52.010;4.446;2023-03-23T03:56:13;12.57;;;3.58;;
41293;SDS011;27037;52.010;4.446;2023-03-23T03:58:39;11.27;;;3.45;;
41293;SDS011;27037;52.010;4.446;2023-03-23T04:01:07;11.60;;;3.58;;
41293;SDS011;27037;52.010;4.446;2023-03-23T04:03:35;11.60;;;2.80;;
41293;SDS011;27037;52.010;4.446;2023-03-23T04:06:01;9.45;;;3.05;;
41293;SDS011;27037;52.010;4.446;2023-03-23T04:08:28;14.35;;;3.10;;
41293;SDS011;27037;52.010;4.446;2023-03-23T04:10:54;12.30;;;2.85;;
41293;SDS011;27037;52.010;4.446;2023-03-23T04:13:20;8.65;;;2.72;;
41293;SDS011;27037;52.010;4.446;2023-03-23T04:15:46;7.97;;;3.08;;
41293;SDS011;27037;52.010;4.446;2023-03-23T04:18:13;10.65;;;3.20;;
41293;SDS011;27037;52.010;4.446;2023-03-23T04:20:41;13.18;;;3.20;;
41293;SDS011;27037;52.010;4.446;2023-03-23T04:23:07;12.07;;;3.30;;
41293;SDS011;27037;52.010;4.446;2023-03-23T04:25:33;13.60;;;3.70;;
41293;SDS011;27037;52.010;4.446;2023-03-23T04:27:59;15.93;;;4.18;;
41293;SDS011;27037;52.010;4.446;2023-03-23T04:30:26;13.20;;;3.28;;
41293;SDS011;27037;52.010;4.446;2023-03-23T04:32:53;10.88;;;3.30;;
41293;SDS011;27037;52.010;4.446;2023-03-23T04:35:24;17.60;;;3.47;;
41293;SDS011;27037;52.010;4.446;2023-03-23T04:37:51;14.95;;;3.40;;
41293;SDS011;27037;52.010;4.446;2023-03-23T04:40:17;14.93;;;3.50;;
41293;SDS011;27037;52.010;4.446;2023-03-23T04:42:44;18.27;;;4.25;;
41293;SDS011;27037;52.010;4.446;2023-03-23T04:45:11;15.23;;;3.72;;
41293;SDS011;27037;52.010;4.446;2023-03-23T04:47:39;16.10;;;3.53;;
41293;SDS011;27037;52.010;4.446;2023-03-23T04:50:07;11.93;;;3.38;;
41293;SDS011;27037;52.010;4.446;2023-03-23T04:52:33;10.95;;;2.97;;
41293;SDS011;27037;52.010;4.446;2023-03-23T04:54:59;17.00;;;3.30;;
41293;SDS011;27037;52.010;4.446;2023-03-23T04:57:25;16.42;;;3.53;;
41293;SDS011;27037;52.010;4.446;2023-03-23T04:59:53;19.65;;;3.75;;
41293;SDS011;27037;52.010;4.446;2023-03-23T05:02:18;12.20;;;3.00;;
41293;SDS011;27037;52.010;4.446;2023-03-23T05:04:44;19.25;;;3.90;;
41293;SDS011;27037;52.010;4.446;2023-03-23T05:07:10;9.02;;;2.90;;
41293;SDS011;27037;52.010;4.446;2023-03-23T05:09:36;15.60;;;3.15;;
41293;SDS011;27037;52.010;4.446;2023-03-23T05:12:06;13.27;;;3.05;;
41293;SDS011;27037;52.010;4.446;2023-03-23T05:14:32;16.60;;;3.88;;
41293;SDS011;27037;52.010;4.446;2023-03-23T05:16:58;17.70;;;3.95;;
41293;SDS011;27037;52.010;4.446;2023-03-23T05:19:24;14.57;;;3.50;;
41293;SDS011;27037;52.010;4.446;2023-03-23T05:21:49;20.95;;;3.92;;
41293;SDS011;27037;52.010;4.446;2023-03-23T05:24:15;17.70;;;3.22;;
41293;SDS011;27037;52.010;4.446;2023-03-23T05:26:40;18.52;;;3.38;;
41293;SDS011;27037;52.010;4.446;2023-03-23T05:29:06;17.42;;;3.42;;
41293;SDS011;27037;52.010;4.446;2023-03-23T05:31:32;16.10;;;3.20;;
41293;SDS011;27037;52.010;4.446;2023-03-23T05:33:58;14.68;;;3.30;;
41293;SDS011;27037;52.010;4.446;2023-03-23T05:36:23;16.55;;;3.58;;
41293;SDS011;27037;52.010;4.446;2023-03-23T05:38:52;21.55;;;4.28;;
41293;SDS011;27037;52.010;4.446;2023-03-23T05:41:18;23.83;;;4.13;;
41293;SDS011;27037;52.010;4.446;2023-03-23T05:43:43;12.93;;;3.95;;
41293;SDS011;27037;52.010;4.446;2023-03-23T05:46:09;15.65;;;3.88;;
41293;SDS011;27037;52.010;4.446;2023-03-23T05:48:35;15.27;;;3.30;;
41293;SDS011;27037;52.010;4.446;2023-03-23T05:51:01;22.35;;;3.80;;
41293;SDS011;27037;52.010;4.446;2023-03-23T05:53:27;17.40;;;3.53;;
41293;SDS011;27037;52.010;4.446;2023-03-23T05:55:59;14.05;;;3.15;;
41293;SDS011;27037;52.010;4.446;2023-03-23T05:58:25;19.02;;;3.42;;
41293;SDS011;27037;52.010;4.446;2023-03-23T06:00:51;20.65;;;3.72;;
41293;SDS011;27037;52.010;4.446;2023-03-23T06:03:16;19.70;;;3.35;;
41293;SDS011;27037;52.010;4.446;2023-03-23T06:05:43;19.33;;;3.67;;
41293;SDS011;27037;52.010;4.446;2023-03-23T06:08:09;17.33;;;3.50;;
41293;SDS011;27037;52.010;4.446;2023-03-23T06:10:35;17.05;;;3.75;;
41293;SDS011;27037;52.010;4.446;2023-03-23T06:13:01;20.88;;;4.28;;
41293;SDS011;27037;52.010;4.446;2023-03-23T06:15:27;21.42;;;4.05;;
41293;SDS011;27037;52.010;4.446;2023-03-23T06:17:57;20.70;;;3.47;;
41293;SDS011;27037;52.010;4.446;2023-03-23T06:20:26;28.33;;;4.15;;
41293;SDS011;27037;52.010;4.446;2023-03-23T06:22:52;22.63;;;4.20;;
41293;SDS011;27037;52.010;4.446;2023-03-23T06:25:18;20.35;;;3.80;;
41293;SDS011;27037;52.010;4.446;2023-03-23T06:27:44;21.67;;;4.38;;
41293;SDS011;27037;52.010;4.446;2023-03-23T06:30:11;20.23;;;4.10;;
41293;SDS011;27037;52.010;4.446;2023-03-23T06:32:40;15.73;;;3.83;;
41293;SDS011;27037;52.010;4.446;2023-03-23T06:35:07;20.45;;;3.63;;
41293;SDS011;27037;52.010;4.446;2023-03-23T06:37:34;21.42;;;4.55;;
41293;SDS011;27037;52.010;4.446;2023-03-23T06:40:01;27.52;;;4.32;;
41293;SDS011;27037;52.010;4.446;2023-03-23T06:42:29;19.73;;;4.13;;
41293;SDS011;27037;52.010;4.446;2023-03-23T06:44:54;19.75;;;3.95;;
41293;SDS011;27037;52.010;4.446;2023-03-23T06:47:22;17.73;;;3.35;;
41293;SDS011;27037;52.010;4.446;2023-03-23T06:49:51;20.45;;;3.80;;
41293;SDS011;27037;52.010;4.446;2023-03-23T06:52:16;27.65;;;3.72;;
41293;SDS011;27037;52.010;4.446;2023-03-23T06:54:42;20.33;;;3.35;;
41293;SDS011;27037;52.010;4.446;2023-03-23T06:57:08;17.45;;;3.22;;
41293;SDS011;27037;52.010;4.446;2023-03-23T06:59:34;16.15;;;3.35;;
41293;SDS011;27037;52.010;4.446;2023-03-23T07:01:59;24.23;;;3.45;;
41293;SDS011;27037;52.010;4.446;2023-03-23T07:04:25;14.52;;;3.35;;
41293;SDS011;27037;52.010;4.446;2023-03-23T07:06:51;18.40;;;3.58;;
41293;SDS011;27037;52.010;4.446;2023-03-23T07:09:16;19.15;;;3.65;;
41293;SDS011;27037;52.010;4.446;2023-03-23T07:11:42;20.00;;;3.35;;
41293;SDS011;27037;52.010;4.446;2023-03-23T07:14:08;14.95;;;3.30;;
41293;SDS011;27037;52.010;4.446;2023-03-23T07:16:35;16.13;;;3.03;;
41293;SDS011;27037;52.010;4.446;2023-03-23T07:19:00;20.50;;;3.10;;
41293;SDS011;27037;52.010;4.446;2023-03-23T07:21:26;22.13;;;3.40;;
41293;SDS011;27037;52.010;4.446;2023-03-23T07:23:52;14.00;;;2.90;;
41293;SDS011;27037;52.010;4.446;2023-03-23T07:26:17;19.17;;;3.55;;
41293;SDS011;27037;52.010;4.446;2023-03-23T07:28:43;17.30;;;3.40;;
41293;SDS011;27037;52.010;4.446;2023-03-23T07:31:10;19.98;;;2.90;;
41293;SDS011;27037;52.010;4.446;2023-03-23T07:33:36;15.93;;;3.35;;
41293;SDS011;27037;52.010;4.446;2023-03-23T07:36:02;21.48;;;3.30;;
41293;SDS011;27037;52.010;4.446;2023-03-23T07:38:28;21.20;;;3.53;;
41293;SDS011;27037;52.010;4.446;2023-03-23T07:40:55;16.00;;;3.42;;
41293;SDS011;27037;52.010;4.446;2023-03-23T07:43:21;18.90;;;3.50;;
41293;SDS011;27037;52.010;4.446;2023-03-23T07:45:47;15.70;;;3.28;;
41293;SDS011;27037;52.010;4.446;2023-03-23T07:48:13;17.42;;;3.75;;
41293;SDS011;27037;52.010;4.446;2023-03-23T07:50:39;24.42;;;3.70;;
41293;SDS011;27037;52.010;4.446;2023-03-23T07:53:05;18.67;;;3.67;;
41293;SDS011;27037;52.010;4.446;2023-03-23T07:55:31;26.55;;;3.38;;
41293;SDS011;27037;52.010;4.446;2023-03-23T07:57:57;16.65;;;3.33;;
41293;SDS011;27037;52.010;4.446;2023-03-23T08:00:23;17.00;;;3.70;;
41293;SDS011;27037;52.010;4.446;2023-03-23T08:02:53;19.27;;;3.65;;
41293;SDS011;27037;52.010;4.446;2023-03-23T08:05:20;21.88;;;4.43;;
41293;SDS011;27037;52.010;4.446;2023-03-23T08:07:47;22.92;;;5.00;;
41293;SDS011;27037;52.010;4.446;2023-03-23T08:10:13;17.45;;;4.68;;
41293;SDS011;27037;52.010;4.446;2023-03-23T08:12:40;22.83;;;4.88;;
41293;SDS011;27037;52.010;4.446;2023-03-23T08:15:07;19.98;;;3.75;;
41293;SDS011;27037;52.010;4.446;2023-03-23T08:17:37;20.52;;;4.95;;
41293;SDS011;27037;52.010;4.446;2023-03-23T08:20:05;15.95;;;3.92;;
41293;SDS011;27037;52.010;4.446;2023-03-23T08:22:37;21.10;;;4.55;;
41293;SDS011;27037;52.010;4.446;2023-03-23T08:25:08;19.48;;;5.00;;
41293;SDS011;27037;52.010;4.446;2023-03-23T08:27:35;22.40;;;4.50;;
41293;SDS011;27037;52.010;4.446;2023-03-23T08:30:02;16.52;;;4.63;;
41293;SDS011;27037;52.010;4.446;2023-03-23T08:32:30;23.67;;;4.63;;
41293;SDS011;27037;52.010;4.446;2023-03-23T08:34:56;25.00;;;4.07;;
41293;SDS011;27037;52.010;4.446;2023-03-23T08:37:22;14.15;;;4.40;;
41293;SDS011;27037;52.010;4.446;2023-03-23T08:39:50;30.10;;;4.90;;
41293;SDS011;27037;52.010;4.446;2023-03-23T08:42:17;23.42;;;4.32;;
41293;SDS011;27037;52.010;4.446;2023-03-23T08:44:43;20.80;;;3.95;;
41293;SDS011;27037;52.010;4.446;2023-03-23T08:47:09;20.55;;;4.18;;
41293;SDS011;27037;52.010;4.446;2023-03-23T08:49:35;25.42;;;3.88;;
41293;SDS011;27037;52.010;4.446;2023-03-23T08:52:00;21.63;;;3.20;;
41293;SDS011;27037;52.010;4.446;2023-03-23T08:54:26;21.05;;;3.80;;
41293;SDS011;27037;52.010;4.446;2023-03-23T08:56:54;22.17;;;3.67;;
41293;SDS011;27037;52.010;4.446;2023-03-23T08:59:19;21.48;;;3.90;;
41293;SDS011;27037;52.010;4.446;2023-03-23T09:01:45;23.63;;;3.58;;
41293;SDS011;27037;52.010;4.446;2023-03-23T09:04:11;21.40;;;3.70;;
41293;SDS011;27037;52.010;4.446;2023-03-23T09:06:36;23.42;;;3.83;;
41293;SDS011;27037;52.010;4.446;2023-03-23T09:09:02;23.42;;;3.85;;
41293;SDS011;27037;52.010;4.446;2023-03-23T09:11:32;23.27;;;3.92;;
41293;SDS011;27037;52.010;4.446;2023-03-23T09:14:01;21.80;;;3.63;;
41293;SDS011;27037;52.010;4.446;2023-03-23T09:16:28;28.38;;;3.67;;
41293;SDS011;27037;52.010;4.446;2023-03-23T09:18:54;22.77;;;3.83;;
41293;SDS011;27037;52.010;4.446;2023-03-23T09:21:22;25.33;;;3.58;;
41293;SDS011;27037;52.010;4.446;2023-03-23T09:23:48;30.38;;;4.18;;
41293;SDS011;27037;52.010;4.446;2023-03-23T09:26:14;33.72;;;4.47;;
41293;SDS011;27037;52.010;4.446;2023-03-23T09:28:40;21.83;;;3.88;;
41293;SDS011;27037;52.010;4.446;2023-03-23T09:31:06;23.75;;;3.55;;
41293;SDS011;27037;52.010;4.446;2023-03-23T09:33:32;27.98;;;4.30;;
41293;SDS011;27037;52.010;4.446;2023-03-23T09:36:01;22.75;;;3.90;;
41293;SDS011;27037;52.010;4.446;2023-03-23T09:38:27;26.40;;;4.40;;
41293;SDS011;27037;52.010;4.446;2023-03-23T09:41:04;24.40;;;3.70;;
41293;SDS011;27037;52.010;4.446;2023-03-23T09:43:56;20.88;;;3.97;;
41293;SDS011;27037;52.010;4.446;2023-03-23T09:49:38;25.77;;;3.83;;
41293;SDS011;27037;52.010;4.446;2023-03-23T09:52:12;23.88;;;4.45;;
41293;SDS011;27037;52.010;4.446;2023-03-23T09:54:41;23.30;;;3.97;;
41293;SDS011;27037;52.010;4.446;2023-03-23T09:57:15;25.75;;;4.22;;
41293;SDS011;27037;52.010;4.446;2023-03-23T10:00:12;28.15;;;4.43;;
41293;SDS011;27037;52.010;4.446;2023-03-23T10:05:39;27.75;;;4.15;;
41293;SDS011;27037;52.010;4.446;2023-03-23T10:08:11;21.77;;;4.45;;
41293;SDS011;27037;52.010;4.446;2023-03-23T10:16:26;22.45;;;4.38;;
41293;SDS011;27037;52.010;4.446;2023-03-23T10:18:58;30.08;;;3.95;;
41293;SDS011;27037;52.010;4.446;2023-03-23T10:21:41;30.73;;;3.90;;
41293;SDS011;27037;52.010;4.446;2023-03-23T10:24:13;28.75;;;4.57;;
41293;SDS011;27037;52.010;4.446;2023-03-23T10:32:09;30.65;;;4.38;;
41293;SDS011;27037;52.010;4.446;2023-03-23T10:35:00;27.98;;;4.20;;
41293;SDS011;27037;52.010;4.446;2023-03-23T10:37:36;19.75;;;4.25;;
41293;SDS011;27037;52.010;4.446;2023-03-23T10:40:11;24.17;;;3.80;;
41293;SDS011;27037;52.010;4.446;2023-03-23T10:42:49;24.98;;;3.97;;
41293;SDS011;27037;52.010;4.446;2023-03-23T10:47:48;24.15;;;4.25;;
41293;SDS011;27037;52.010;4.446;2023-03-23T10:50:21;20.67;;;4.47;;
41293;SDS011;27037;52.010;4.446;2023-03-23T10:52:49;33.80;;;5.10;;
41293;SDS011;27037;52.010;4.446;2023-03-23T10:55:19;30.35;;;4.60;;
41293;SDS011;27037;52.010;4.446;2023-03-23T11:00:44;23.23;;;4.18;;
41293;SDS011;27037;52.010;4.446;2023-03-23T11:05:44;23.90;;;4.65;;
41293;SDS011;27037;52.010;4.446;2023-03-23T11:08:22;24.73;;;4.93;;
41293;SDS011;27037;52.010;4.446;2023-03-23T11:10:54;20.25;;;4.10;;
41293;SDS011;27037;52.010;4.446;2023-03-23T11:13:32;23.05;;;4.25;;
41293;SDS011;27037;52.010;4.446;2023-03-23T11:15:59;24.88;;;4.13;;
41293;SDS011;27037;52.010;4.446;2023-03-23T11:18:39;19.95;;;3.80;;
41293;SDS011;27037;52.010;4.446;2023-03-23T11:21:07;15.82;;;3.42;;
41293;SDS011;27037;52.010;4.446;2023-03-23T11:23:37;24.35;;;3.58;;
41293;SDS011;27037;52.010;4.446;2023-03-23T11:28:46;15.23;;;3.20;;
41293;SDS011;27037;52.010;4.446;2023-03-23T11:31:40;20.58;;;3.85;;
41293;SDS011;27037;52.010;4.446;2023-03-23T11:34:11;20.50;;;3.92;;
41293;SDS011;27037;52.010;4.446;2023-03-23T11:36:54;17.80;;;4.13;;
41293;SDS011;27037;52.010;4.446;2023-03-23T11:39:27;20.35;;;3.83;;
41293;SDS011;27037;52.010;4.446;2023-03-23T11:42:16;16.52;;;4.03;;
41293;SDS011;27037;52.010;4.446;2023-03-23T11:47:16;18.90;;;3.33;;
41293;SDS011;27037;52.010;4.446;2023-03-23T11:56:01;16.85;;;3.22;;
41293;SDS011;27037;52.010;4.446;2023-03-23T11:58:46;18.55;;;3.47;;
41293;SDS011;27037;52.010;4.446;2023-03-23T12:01:28;22.33;;;3.50;;
41293;SDS011;27037;52.010;4.446;2023-03-23T12:09:35;12.02;;;2.83;;
41293;SDS011;27037;52.010;4.446;2023-03-23T12:17:56;13.93;;;2.85;;
41293;SDS011;27037;52.010;4.446;2023-03-23T12:28:45;16.58;;;3.13;;
41293;SDS011;27037;52.010;4.446;2023-03-23T12:44:48;12.13;;;2.92;;
41293;SDS011;27037;52.010;4.446;2023-03-23T12:47:33;13.88;;;2.67;;
41293;SDS011;27037;52.010;4.446;2023-03-23T12:53:46;11.50;;;2.60;;
41293;SDS011;27037;52.010;4.446;2023-03-23T12:56:06;17.83;;;2.92;;
41293;SDS011;27037;52.010;4.446;2023-03-23T12:58:36;16.77;;;3.20;;
41293;SDS011;27037;52.010;4.446;2023-03-23T13:01:09;15.18;;;3.55;;
41293;SDS011;27037;52.010;4.446;2023-03-23T13:11:47;20.13;;;3.50;;
41293;SDS011;27037;52.010;4.446;2023-03-23T13:19:51;19.15;;;3.30;;
41293;SDS011;27037;52.010;4.446;2023-03-23T13:27:59;15.50;;;3.10;;
41293;SDS011;27037;52.010;4.446;2023-03-23T13:30:28;20.67;;;3.70;;
41293;SDS011;27037;52.010;4.446;2023-03-23T13:33:04;17.25;;;3.35;;
41293;SDS011;27037;52.010;4.446;2023-03-23T13:35:35;21.42;;;3.78;;
41293;SDS011;27037;52.010;4.446;2023-03-23T13:38:10;20.77;;;3.67;;
41293;SDS011;27037;52.010;4.446;2023-03-23T13:40:49;19.33;;;4.07;;
41293;SDS011;27037;52.010;4.446;2023-03-23T13:43:24;21.67;;;3.55;;
41293;SDS011;27037;52.010;4.446;2023-03-23T13:45:52;20.45;;;3.45;;
41293;SDS011;27037;52.010;4.446;2023-03-23T13:48:22;20.00;;;3.47;;
41293;SDS011;27037;52.010;4.446;2023-03-23T13:53:23;17.60;;;3.53;;
41293;SDS011;27037;52.010;4.446;2023-03-23T13:56:05;18.05;;;3.30;;
41293;SDS011;27037;52.010;4.446;2023-03-23T13:58:50;21.05;;;3.97;;
41293;SDS011;27037;52.010;4.446;2023-03-23T14:01:31;19.50;;;3.53;;
41293;SDS011;27037;52.010;4.446;2023-03-23T14:04:00;16.92;;;3.30;;
41293;SDS011;27037;52.010;4.446;2023-03-23T14:06:33;23.80;;;3.78;;
41293;SDS011;27037;52.010;4.446;2023-03-23T14:09:04;17.83;;;3.20;;
41293;SDS011;27037;52.010;4.446;2023-03-23T14:11:34;17.70;;;3.33;;
41293;SDS011;27037;52.010;4.446;2023-03-23T14:14:34;19.23;;;3.10;;
41293;SDS011;27037;52.010;4.446;2023-03-23T14:19:37;17.75;;;3.40;;
41293;SDS011;27037;52.010;4.446;2023-03-23T14:22:05;19.85;;;3.35;;
41293;SDS011;27037;52.010;4.446;2023-03-23T14:24:47;20.65;;;3.67;;
41293;SDS011;27037;52.010;4.446;2023-03-23T14:27:14;17.73;;;4.00;;
41293;SDS011;27037;52.010;4.446;2023-03-23T14:29:42;21.83;;;3.95;;
41293;SDS011;27037;52.010;4.446;2023-03-23T14:32:10;15.07;;;3.20;;
41293;SDS011;27037;52.010;4.446;2023-03-23T14:34:43;22.63;;;3.88;;
41293;SDS011;27037;52.010;4.446;2023-03-23T14:37:11;17.30;;;3.30;;
41293;SDS011;27037;52.010;4.446;2023-03-23T14:39:40;18.30;;;3.55;;
41293;SDS011;27037;52.010;4.446;2023-03-23T14:42:14;19.77;;;4.20;;
41293;SDS011;27037;52.010;4.446;2023-03-23T14:44:51;21.02;;;3.95;;
41293;SDS011;27037;52.010;4.446;2023-03-23T14:47:22;23.63;;;3.63;;
41293;SDS011;27037;52.010;4.446;2023-03-23T14:49:54;19.95;;;3.80;;
41293;SDS011;27037;52.010;4.446;2023-03-23T14:52:22;20.90;;;4.10;;
41293;SDS011;27037;52.010;4.446;2023-03-23T14:54:50;21.80;;;3.70;;
41293;SDS011;27037;52.010;4.446;2023-03-23T14:59:46;19.60;;;3.42;;
41293;SDS011;27037;52.010;4.446;2023-03-23T15:02:14;18.77;;;3.55;;
41293;SDS011;27037;52.010;4.446;2023-03-23T15:05:21;19.55;;;3.38;;
41293;SDS011;27037;52.010;4.446;2023-03-23T15:08:19;22.00;;;3.78;;
41293;SDS011;27037;52.010;4.446;2023-03-23T15:10:55;20.38;;;3.70;;
41293;SDS011;27037;52.010;4.446;2023-03-23T15:13:43;22.33;;;3.78;;
41293;SDS011;27037;52.010;4.446;2023-03-23T15:16:30;23.45;;;3.70;;
41293;SDS011;27037;52.010;4.446;2023-03-23T15:21:31;22.13;;;3.80;;
41293;SDS011;27037;52.010;4.446;2023-03-23T15:24:27;16.00;;;3.65;;
41293;SDS011;27037;52.010;4.446;2023-03-23T15:27:03;21.20;;;3.88;;
41293;SDS011;27037;52.010;4.446;2023-03-23T15:32:41;18.50;;;3.95;;
41293;SDS011;27037;52.010;4.446;2023-03-23T15:35:33;16.10;;;3.58;;
41293;SDS011;27037;52.010;4.446;2023-03-23T15:37:59;17.20;;;3.53;;
41293;SDS011;27037;52.010;4.446;2023-03-23T15:40:31;19.77;;;3.67;;
41293;SDS011;27037;52.010;4.446;2023-03-23T15:43:14;22.13;;;3.40;;
41293;SDS011;27037;52.010;4.446;2023-03-23T15:45:56;20.88;;;3.63;;
41293;SDS011;27037;52.010;4.446;2023-03-23T15:48:25;18.40;;;3.50;;
41293;SDS011;27037;52.010;4.446;2023-03-23T15:50:52;24.42;;;3.97;;
41293;SDS011;27037;52.010;4.446;2023-03-23T15:55:57;21.23;;;4.03;;
41293;SDS011;27037;52.010;4.446;2023-03-23T15:58:25;20.80;;;3.78;;
41293;SDS011;27037;52.010;4.446;2023-03-23T16:00:51;16.13;;;3.47;;
41293;SDS011;27037;52.010;4.446;2023-03-23T16:03:24;18.60;;;3.67;;
41293;SDS011;27037;52.010;4.446;2023-03-23T16:05:54;20.63;;;3.92;;
41293;SDS011;27037;52.010;4.446;2023-03-23T16:08:21;18.60;;;3.47;;
41293;SDS011;27037;52.010;4.446;2023-03-23T16:10:47;22.50;;;4.10;;
41293;SDS011;27037;52.010;4.446;2023-03-23T16:13:14;21.38;;;3.95;;
41293;SDS011;27037;52.010;4.446;2023-03-23T16:15:40;22.15;;;3.80;;
41293;SDS011;27037;52.010;4.446;2023-03-23T16:18:06;23.90;;;4.03;;
41293;SDS011;27037;52.010;4.446;2023-03-23T16:20:31;26.00;;;4.28;;
41293;SDS011;27037;52.010;4.446;2023-03-23T16:22:57;25.52;;;4.60;;
41293;SDS011;27037;52.010;4.446;2023-03-23T16:25:23;23.83;;;4.10;;
41293;SDS011;27037;52.010;4.446;2023-03-23T16:27:49;21.02;;;4.35;;
41293;SDS011;27037;52.010;4.446;2023-03-23T16:30:25;23.40;;;3.80;;
41293;SDS011;27037;52.010;4.446;2023-03-23T16:32:52;19.67;;;4.00;;
41293;SDS011;27037;52.010;4.446;2023-03-23T16:35:18;23.13;;;4.40;;
41293;SDS011;27037;52.010;4.446;2023-03-23T16:37:45;22.80;;;4.65;;
41293;SDS011;27037;52.010;4.446;2023-03-23T16:40:16;16.40;;;3.42;;
41293;SDS011;27037;52.010;4.446;2023-03-23T16:42:43;22.33;;;3.63;;
41293;SDS011;27037;52.010;4.446;2023-03-23T16:45:09;28.17;;;4.72;;
41293;SDS011;27037;52.010;4.446;2023-03-23T16:47:36;21.35;;;4.10;;
41293;SDS011;27037;52.010;4.446;2023-03-23T16:50:02;28.73;;;4.28;;
41293;SDS011;27037;52.010;4.446;2023-03-23T16:52:30;21.38;;;3.88;;
41293;SDS011;27037;52.010;4.446;2023-03-23T16:54:56;28.33;;;4.03;;
41293;SDS011;27037;52.010;4.446;2023-03-23T16:57:22;25.05;;;4.38;;
41293;SDS011;27037;52.010;4.446;2023-03-23T16:59:47;22.67;;;3.80;;
41293;SDS011;27037;52.010;4.446;2023-03-23T17:02:13;24.42;;;4.47;;
41293;SDS011;27037;52.010;4.446;2023-03-23T17:04:42;23.50;;;4.07;;
41293;SDS011;27037;52.010;4.446;2023-03-23T17:07:10;24.45;;;4.63;;
41293;SDS011;27037;52.010;4.446;2023-03-23T17:09:37;24.65;;;4.40;;
41293;SDS011;27037;52.010;4.446;2023-03-23T17:12:03;29.02;;;4.88;;